DAAGDAAT

Guest
Details From DAAG - Alger Houari Boumediene
To DAAT - Tamanrasset
Flight Number -
Tags Generated
Created
Modified
Stats Distance 844 nm / 1,562 km
Max Altitude 0 ft / 0 m
Waypoints 4
Social Downloads 4
Likes 0
Share VATSIM

Download

Looking for another format? Having issues loading an existing format? Contact us
Advertisement - Login to hide

Notes

Generated

Route

DAAG GHA TMS DAAT

ID Type Via Altitude Latitude Longitude Leg Dist Tot Dist Heading (true) Name
O DAAG APT - 0 ft / 0 m 36.69213˚ 3.17083˚ - 0 nm - -
GHA NDB - 0 ft / 0 m 32.37472˚ 3.79417˚ 261 nm 261 nm 173° / 173° GHARDAIA NDB
TMS VOR - 0 ft / 0 m 22.84278˚ 5.46472˚ 579 nm 840 nm 171° / 172° TAMANRASSET VOR-DME
O DAAT APT - 0 ft / 0 m 22.80731˚ 5.42277˚ 3 nm 843 nm 227° / 227° -

Altitude Profile

Advertisement - Login to hide

Weather


0- 5 10 15 20 25 30 35+ Temperature / ° C

Clouds and Precipitation
Forecast for 2018-05-21 18:00 UTC. Updated 2 hours ago

Ground ~20,000 ft ~40,000 ft Winds

DAAG

Details ICAO DAAG (ALG)
Name Alger Houari Boumediene
Region Algeria
Timezone Africa/Algiers (UTC+1.0)
Stats Elevation 82 ft / 25 m (AMSL)
Location 36.697521° 3.213079°
Runways 2
Magnetic Variation 1.102° E

METAR

DAAG 211900Z 05005KT 9999 FEW020 SCT200 18/15 Q1013

Decode

TAF

TAF DAAG 211700Z 2118/2218 34010KT 9999 FEW020 TEMPO 2118/2123 FEW020TCU FEW023CB BECMG 2120/2122 VRB02KT PROB40 2122/2209 3000 BR BKN013 PROB30 TEMPO 2200/2206 0800 FG BKN008 BECMG 2209/2212 02010KT

Decode

Departure Runways

ID Width Length Bearing (true) Bearing (mag) Surface Threshold Offset Overrun Length
05 197 ft / 60 m 11,459 ft / 3,493 m 52.87° 51.77° Asphalt 0 ft / 0 m 0 ft / 0 m
09 148 ft / 45 m 11,442 ft / 3,487 m 91.75° 90.65° Asphalt 0 ft / 0 m 1,017 ft / 310 m
23 197 ft / 60 m 11,459 ft / 3,493 m 232.89° 231.79° Asphalt 0 ft / 0 m 0 ft / 0 m
27 148 ft / 45 m 11,442 ft / 3,487 m 271.78° 270.68° Asphalt 0 ft / 0 m 0 ft / 0 m

DAAT

Details ICAO DAAT (TMR)
Name TAMANRASSET
Region Algeria
Timezone Africa/Algiers (UTC+1.0)
Stats Elevation 4,518 ft / 1,377 m (AMSL)
Location 22.810384° 5.444403°
Runways 2
Magnetic Variation 0.637° E

METAR

DAAT 211900Z 34016KT 8000 NSC 30/01 Q1018

Decode

TAF

TAF DAAT 211700Z 2118/2218 30016KT 8000 SCT046 SCT100 PROB40 TEMPO 2118/2124 32015G30KT FEW040CB PROB40 TEMPO 2100/2209 36015G25KT

Decode

Destination Runways

ID Width Length Bearing (true) Bearing (mag) Surface Threshold Offset Overrun Length
02 148 ft / 45 m 11,884 ft / 3,622 m 22.21° 21.57° Asphalt 0 ft / 0 m 0 ft / 0 m
08 148 ft / 45 m 10,169 ft / 3,099 m 81.74° 81.10° Asphalt 0 ft / 0 m 0 ft / 0 m
20 148 ft / 45 m 11,884 ft / 3,622 m 202.22° 201.58° Asphalt 0 ft / 0 m 0 ft / 0 m
26 148 ft / 45 m 10,169 ft / 3,099 m 261.75° 261.11° Asphalt 0 ft / 0 m 0 ft / 0 m

Popular Alternatives